sensor_id;sensor_type;location;lat;lon;timestamp;P1;durP1;ratioP1;P2;durP2;ratioP2
28531;SDS011;15738;44.860;10.066;2022-12-07T00:01:12;43.17;;;24.17;;
28531;SDS011;15738;44.860;10.066;2022-12-07T00:04:00;39.85;;;22.75;;
28531;SDS011;15738;44.860;10.066;2022-12-07T00:06:51;43.25;;;22.98;;
28531;SDS011;15738;44.860;10.066;2022-12-07T00:09:37;42.35;;;23.58;;
28531;SDS011;15738;44.860;10.066;2022-12-07T00:12:23;38.95;;;22.73;;
28531;SDS011;15738;44.860;10.066;2022-12-07T00:15:09;47.63;;;24.10;;
28531;SDS011;15738;44.860;10.066;2022-12-07T00:17:55;40.10;;;23.15;;
28531;SDS011;15738;44.860;10.066;2022-12-07T00:20:40;48.03;;;23.77;;
28531;SDS011;15738;44.860;10.066;2022-12-07T00:23:26;43.17;;;23.58;;
28531;SDS011;15738;44.860;10.066;2022-12-07T00:26:17;51.67;;;24.20;;
28531;SDS011;15738;44.860;10.066;2022-12-07T00:29:09;50.30;;;25.00;;
28531;SDS011;15738;44.860;10.066;2022-12-07T00:32:01;47.53;;;23.88;;
28531;SDS011;15738;44.860;10.066;2022-12-07T00:34:47;42.75;;;24.23;;
28531;SDS011;15738;44.860;10.066;2022-12-07T00:37:32;45.42;;;25.20;;
28531;SDS011;15738;44.860;10.066;2022-12-07T00:40:18;42.15;;;23.73;;
28531;SDS011;15738;44.860;10.066;2022-12-07T00:43:04;41.95;;;24.05;;
28531;SDS011;15738;44.860;10.066;2022-12-07T00:45:50;43.50;;;23.45;;
28531;SDS011;15738;44.860;10.066;2022-12-07T00:48:35;43.45;;;24.95;;
28531;SDS011;15738;44.860;10.066;2022-12-07T00:51:23;46.55;;;23.67;;
28531;SDS011;15738;44.860;10.066;2022-12-07T00:54:09;49.72;;;24.25;;
28531;SDS011;15738;44.860;10.066;2022-12-07T00:56:55;41.70;;;24.33;;
28531;SDS011;15738;44.860;10.066;2022-12-07T00:59:41;43.97;;;24.60;;
28531;SDS011;15738;44.860;10.066;2022-12-07T01:02:26;45.92;;;25.63;;
28531;SDS011;15738;44.860;10.066;2022-12-07T01:05:12;46.70;;;25.90;;
28531;SDS011;15738;44.860;10.066;2022-12-07T01:07:58;47.85;;;26.98;;
28531;SDS011;15738;44.860;10.066;2022-12-07T01:10:43;51.17;;;27.63;;
28531;SDS011;15738;44.860;10.066;2022-12-07T01:13:29;48.25;;;27.20;;
28531;SDS011;15738;44.860;10.066;2022-12-07T01:16:16;42.90;;;25.73;;
28531;SDS011;15738;44.860;10.066;2022-12-07T01:19:02;52.55;;;28.00;;
28531;SDS011;15738;44.860;10.066;2022-12-07T01:21:49;51.28;;;27.58;;
28531;SDS011;15738;44.860;10.066;2022-12-07T01:24:35;48.90;;;26.75;;
28531;SDS011;15738;44.860;10.066;2022-12-07T01:27:20;48.05;;;25.75;;
28531;SDS011;15738;44.860;10.066;2022-12-07T01:30:06;43.53;;;25.95;;
28531;SDS011;15738;44.860;10.066;2022-12-07T01:32:52;44.70;;;25.23;;
28531;SDS011;15738;44.860;10.066;2022-12-07T01:35:38;46.10;;;25.05;;
28531;SDS011;15738;44.860;10.066;2022-12-07T01:38:23;52.85;;;27.02;;
28531;SDS011;15738;44.860;10.066;2022-12-07T01:41:09;48.42;;;26.30;;
28531;SDS011;15738;44.860;10.066;2022-12-07T01:44:12;56.97;;;27.75;;
28531;SDS011;15738;44.860;10.066;2022-12-07T01:47:04;49.08;;;26.52;;
28531;SDS011;15738;44.860;10.066;2022-12-07T01:49:51;49.92;;;26.38;;
28531;SDS011;15738;44.860;10.066;2022-12-07T01:52:37;45.33;;;26.10;;
28531;SDS011;15738;44.860;10.066;2022-12-07T01:55:24;49.08;;;26.95;;
28531;SDS011;15738;44.860;10.066;2022-12-07T01:58:11;49.22;;;24.90;;
28531;SDS011;15738;44.860;10.066;2022-12-07T02:00:57;49.40;;;25.88;;
28531;SDS011;15738;44.860;10.066;2022-12-07T02:03:43;49.28;;;26.48;;
28531;SDS011;15738;44.860;10.066;2022-12-07T02:06:30;46.05;;;25.23;;
28531;SDS011;15738;44.860;10.066;2022-12-07T02:09:16;55.78;;;26.38;;
28531;SDS011;15738;44.860;10.066;2022-12-07T02:12:02;50.45;;;26.45;;
28531;SDS011;15738;44.860;10.066;2022-12-07T02:14:48;45.67;;;25.55;;
28531;SDS011;15738;44.860;10.066;2022-12-07T02:17:47;49.28;;;24.73;;
28531;SDS011;15738;44.860;10.066;2022-12-07T02:20:57;43.78;;;25.25;;
28531;SDS011;15738;44.860;10.066;2022-12-07T02:24:03;45.22;;;24.63;;
28531;SDS011;15738;44.860;10.066;2022-12-07T02:33:05;41.08;;;23.13;;
28531;SDS011;15738;44.860;10.066;2022-12-07T02:41:34;41.47;;;21.45;;
28531;SDS011;15738;44.860;10.066;2022-12-07T02:44:25;37.13;;;20.73;;
28531;SDS011;15738;44.860;10.066;2022-12-07T02:47:14;36.63;;;20.73;;
28531;SDS011;15738;44.860;10.066;2022-12-07T02:50:03;39.13;;;21.38;;
28531;SDS011;15738;44.860;10.066;2022-12-07T02:52:50;41.35;;;21.10;;
28531;SDS011;15738;44.860;10.066;2022-12-07T02:55:37;39.15;;;21.98;;
28531;SDS011;15738;44.860;10.066;2022-12-07T02:58:36;38.72;;;22.70;;
28531;SDS011;15738;44.860;10.066;2022-12-07T03:10:57;36.30;;;21.80;;
28531;SDS011;15738;44.860;10.066;2022-12-07T03:14:30;42.90;;;22.83;;
28531;SDS011;15738;44.860;10.066;2022-12-07T03:17:24;44.00;;;23.40;;
28531;SDS011;15738;44.860;10.066;2022-12-07T03:20:13;39.97;;;22.13;;
28531;SDS011;15738;44.860;10.066;2022-12-07T03:23:04;44.60;;;22.23;;
28531;SDS011;15738;44.860;10.066;2022-12-07T03:25:56;40.38;;;22.55;;
28531;SDS011;15738;44.860;10.066;2022-12-07T03:28:47;47.45;;;23.65;;
28531;SDS011;15738;44.860;10.066;2022-12-07T03:31:38;42.17;;;24.17;;
28531;SDS011;15738;44.860;10.066;2022-12-07T03:35:30;41.43;;;23.30;;
28531;SDS011;15738;44.860;10.066;2022-12-07T03:38:27;47.35;;;24.25;;
28531;SDS011;15738;44.860;10.066;2022-12-07T03:41:16;42.97;;;24.38;;
28531;SDS011;15738;44.860;10.066;2022-12-07T03:44:10;46.78;;;24.33;;
28531;SDS011;15738;44.860;10.066;2022-12-07T03:50:23;51.33;;;25.15;;
28531;SDS011;15738;44.860;10.066;2022-12-07T03:53:15;46.70;;;25.38;;
28531;SDS011;15738;44.860;10.066;2022-12-07T03:56:07;45.72;;;24.83;;
28531;SDS011;15738;44.860;10.066;2022-12-07T03:58:54;48.83;;;25.95;;
28531;SDS011;15738;44.860;10.066;2022-12-07T04:01:44;45.22;;;25.45;;
28531;SDS011;15738;44.860;10.066;2022-12-07T04:04:36;47.28;;;24.55;;
28531;SDS011;15738;44.860;10.066;2022-12-07T04:07:21;50.03;;;24.85;;
28531;SDS011;15738;44.860;10.066;2022-12-07T04:10:07;41.15;;;23.75;;
28531;SDS011;15738;44.860;10.066;2022-12-07T04:12:53;42.17;;;23.15;;
28531;SDS011;15738;44.860;10.066;2022-12-07T04:15:40;40.13;;;22.13;;
28531;SDS011;15738;44.860;10.066;2022-12-07T04:18:26;36.70;;;20.48;;
28531;SDS011;15738;44.860;10.066;2022-12-07T04:21:11;34.10;;;20.33;;
28531;SDS011;15738;44.860;10.066;2022-12-07T04:23:57;37.72;;;20.55;;
28531;SDS011;15738;44.860;10.066;2022-12-07T04:26:45;35.95;;;19.65;;
28531;SDS011;15738;44.860;10.066;2022-12-07T04:29:31;34.47;;;19.42;;
28531;SDS011;15738;44.860;10.066;2022-12-07T04:32:16;34.13;;;19.13;;
28531;SDS011;15738;44.860;10.066;2022-12-07T04:35:02;32.47;;;19.02;;
28531;SDS011;15738;44.860;10.066;2022-12-07T04:37:48;32.22;;;18.25;;
28531;SDS011;15738;44.860;10.066;2022-12-07T04:40:34;32.88;;;18.13;;
28531;SDS011;15738;44.860;10.066;2022-12-07T04:43:20;37.35;;;18.88;;
28531;SDS011;15738;44.860;10.066;2022-12-07T04:46:05;34.22;;;19.02;;
28531;SDS011;15738;44.860;10.066;2022-12-07T04:48:52;36.40;;;19.00;;
28531;SDS011;15738;44.860;10.066;2022-12-07T04:51:38;34.03;;;18.92;;
28531;SDS011;15738;44.860;10.066;2022-12-07T04:54:24;35.67;;;19.98;;
28531;SDS011;15738;44.860;10.066;2022-12-07T04:57:10;37.80;;;20.05;;
28531;SDS011;15738;44.860;10.066;2022-12-07T04:59:56;33.67;;;19.13;;
28531;SDS011;15738;44.860;10.066;2022-12-07T05:02:41;36.30;;;19.40;;
28531;SDS011;15738;44.860;10.066;2022-12-07T05:05:27;32.05;;;19.08;;
28531;SDS011;15738;44.860;10.066;2022-12-07T05:08:12;34.65;;;19.20;;
28531;SDS011;15738;44.860;10.066;2022-12-07T05:10:58;34.65;;;19.65;;
28531;SDS011;15738;44.860;10.066;2022-12-07T05:13:45;34.20;;;19.70;;
28531;SDS011;15738;44.860;10.066;2022-12-07T05:16:30;35.90;;;19.67;;
28531;SDS011;15738;44.860;10.066;2022-12-07T05:19:16;35.53;;;19.85;;
28531;SDS011;15738;44.860;10.066;2022-12-07T05:22:03;33.97;;;19.63;;
28531;SDS011;15738;44.860;10.066;2022-12-07T05:24:49;36.80;;;20.08;;
28531;SDS011;15738;44.860;10.066;2022-12-07T05:27:36;39.40;;;20.52;;
28531;SDS011;15738;44.860;10.066;2022-12-07T05:30:22;39.67;;;20.52;;
28531;SDS011;15738;44.860;10.066;2022-12-07T05:33:08;35.08;;;21.17;;
28531;SDS011;15738;44.860;10.066;2022-12-07T05:35:54;35.50;;;21.02;;
28531;SDS011;15738;44.860;10.066;2022-12-07T05:38:40;40.30;;;20.38;;
28531;SDS011;15738;44.860;10.066;2022-12-07T05:41:26;39.15;;;21.52;;
28531;SDS011;15738;44.860;10.066;2022-12-07T05:44:30;36.65;;;20.67;;
28531;SDS011;15738;44.860;10.066;2022-12-07T05:47:16;40.20;;;21.05;;
28531;SDS011;15738;44.860;10.066;2022-12-07T05:50:02;30.67;;;18.50;;
28531;SDS011;15738;44.860;10.066;2022-12-07T05:52:50;33.92;;;18.45;;
28531;SDS011;15738;44.860;10.066;2022-12-07T05:55:35;41.90;;;19.02;;
28531;SDS011;15738;44.860;10.066;2022-12-07T05:58:21;34.33;;;17.63;;
28531;SDS011;15738;44.860;10.066;2022-12-07T06:01:25;39.35;;;18.35;;
28531;SDS011;15738;44.860;10.066;2022-12-07T06:04:11;31.60;;;17.35;;
28531;SDS011;15738;44.860;10.066;2022-12-07T06:06:56;28.92;;;17.50;;
28531;SDS011;15738;44.860;10.066;2022-12-07T06:09:43;31.65;;;17.85;;
28531;SDS011;15738;44.860;10.066;2022-12-07T06:12:29;31.38;;;17.40;;
28531;SDS011;15738;44.860;10.066;2022-12-07T06:15:20;32.90;;;17.17;;
28531;SDS011;15738;44.860;10.066;2022-12-07T06:18:07;33.78;;;16.20;;
28531;SDS011;15738;44.860;10.066;2022-12-07T06:20:53;29.63;;;15.32;;
28531;SDS011;15738;44.860;10.066;2022-12-07T06:23:40;27.77;;;15.35;;
28531;SDS011;15738;44.860;10.066;2022-12-07T06:26:25;31.20;;;15.68;;
28531;SDS011;15738;44.860;10.066;2022-12-07T06:29:11;28.75;;;14.70;;
28531;SDS011;15738;44.860;10.066;2022-12-07T06:31:58;25.27;;;14.20;;
28531;SDS011;15738;44.860;10.066;2022-12-07T06:34:44;26.63;;;14.60;;
28531;SDS011;15738;44.860;10.066;2022-12-07T06:37:31;26.73;;;14.38;;
28531;SDS011;15738;44.860;10.066;2022-12-07T06:40:17;28.23;;;15.32;;
28531;SDS011;15738;44.860;10.066;2022-12-07T06:43:03;34.03;;;15.18;;
28531;SDS011;15738;44.860;10.066;2022-12-07T06:45:48;31.15;;;15.45;;
28531;SDS011;15738;44.860;10.066;2022-12-07T06:48:34;32.90;;;15.68;;
28531;SDS011;15738;44.860;10.066;2022-12-07T06:51:19;39.30;;;16.60;;
28531;SDS011;15738;44.860;10.066;2022-12-07T06:54:05;42.85;;;19.88;;
28531;SDS011;15738;44.860;10.066;2022-12-07T06:56:56;37.60;;;20.50;;
28531;SDS011;15738;44.860;10.066;2022-12-07T06:59:42;38.83;;;21.50;;
28531;SDS011;15738;44.860;10.066;2022-12-07T07:04:17;38.20;;;22.95;;
28531;SDS011;15738;44.860;10.066;2022-12-07T07:07:03;39.08;;;22.38;;
28531;SDS011;15738;44.860;10.066;2022-12-07T07:09:48;38.40;;;21.90;;
28531;SDS011;15738;44.860;10.066;2022-12-07T07:12:34;40.65;;;23.45;;
28531;SDS011;15738;44.860;10.066;2022-12-07T07:15:20;43.13;;;23.52;;
28531;SDS011;15738;44.860;10.066;2022-12-07T07:18:05;41.38;;;23.48;;
28531;SDS011;15738;44.860;10.066;2022-12-07T07:20:52;44.95;;;22.58;;
28531;SDS011;15738;44.860;10.066;2022-12-07T07:23:39;39.75;;;22.42;;
28531;SDS011;15738;44.860;10.066;2022-12-07T07:26:24;39.80;;;21.70;;
28531;SDS011;15738;44.860;10.066;2022-12-07T07:29:10;39.15;;;22.65;;
28531;SDS011;15738;44.860;10.066;2022-12-07T07:31:55;38.13;;;22.00;;
28531;SDS011;15738;44.860;10.066;2022-12-07T07:34:49;39.85;;;22.70;;
28531;SDS011;15738;44.860;10.066;2022-12-07T07:37:34;36.10;;;21.08;;
28531;SDS011;15738;44.860;10.066;2022-12-07T07:40:21;39.08;;;21.83;;
28531;SDS011;15738;44.860;10.066;2022-12-07T07:43:07;43.08;;;21.30;;
28531;SDS011;15738;44.860;10.066;2022-12-07T07:45:55;36.90;;;22.33;;
28531;SDS011;15738;44.860;10.066;2022-12-07T07:48:42;33.45;;;20.95;;
28531;SDS011;15738;44.860;10.066;2022-12-07T07:51:28;33.25;;;20.30;;
28531;SDS011;15738;44.860;10.066;2022-12-07T07:54:14;41.40;;;22.08;;
28531;SDS011;15738;44.860;10.066;2022-12-07T07:57:00;36.67;;;21.05;;
28531;SDS011;15738;44.860;10.066;2022-12-07T07:59:46;36.58;;;21.23;;
28531;SDS011;15738;44.860;10.066;2022-12-07T08:02:32;33.30;;;19.42;;
28531;SDS011;15738;44.860;10.066;2022-12-07T08:05:17;33.30;;;19.60;;
28531;SDS011;15738;44.860;10.066;2022-12-07T08:08:03;27.70;;;17.73;;
28531;SDS011;15738;44.860;10.066;2022-12-07T08:10:50;30.35;;;18.83;;
28531;SDS011;15738;44.860;10.066;2022-12-07T08:13:36;33.72;;;18.58;;
28531;SDS011;15738;44.860;10.066;2022-12-07T08:16:22;30.35;;;17.67;;
28531;SDS011;15738;44.860;10.066;2022-12-07T08:19:08;29.15;;;17.42;;
28531;SDS011;15738;44.860;10.066;2022-12-07T08:21:54;29.05;;;17.60;;
28531;SDS011;15738;44.860;10.066;2022-12-07T08:24:41;28.65;;;17.35;;
28531;SDS011;15738;44.860;10.066;2022-12-07T08:27:27;28.05;;;16.65;;
28531;SDS011;15738;44.860;10.066;2022-12-07T08:30:13;27.40;;;16.63;;
28531;SDS011;15738;44.860;10.066;2022-12-07T08:33:00;30.38;;;16.50;;
28531;SDS011;15738;44.860;10.066;2022-12-07T08:35:46;32.03;;;17.80;;
28531;SDS011;15738;44.860;10.066;2022-12-07T08:38:31;28.77;;;17.00;;
28531;SDS011;15738;44.860;10.066;2022-12-07T08:41:19;32.40;;;18.25;;
28531;SDS011;15738;44.860;10.066;2022-12-07T08:44:04;30.17;;;17.48;;
28531;SDS011;15738;44.860;10.066;2022-12-07T08:46:51;30.58;;;18.50;;
28531;SDS011;15738;44.860;10.066;2022-12-07T08:49:41;37.67;;;20.05;;
28531;SDS011;15738;44.860;10.066;2022-12-07T08:52:30;32.67;;;16.95;;
28531;SDS011;15738;44.860;10.066;2022-12-07T08:55:17;25.40;;;15.45;;
28531;SDS011;15738;44.860;10.066;2022-12-07T08:58:03;29.75;;;15.85;;
28531;SDS011;15738;44.860;10.066;2022-12-07T09:00:48;27.90;;;16.13;;
28531;SDS011;15738;44.860;10.066;2022-12-07T09:03:34;25.77;;;15.38;;
28531;SDS011;15738;44.860;10.066;2022-12-07T09:06:19;30.58;;;17.33;;
28531;SDS011;15738;44.860;10.066;2022-12-07T09:09:06;25.38;;;15.82;;
28531;SDS011;15738;44.860;10.066;2022-12-07T09:11:54;26.35;;;15.70;;
28531;SDS011;15738;44.860;10.066;2022-12-07T09:14:40;29.85;;;17.08;;
28531;SDS011;15738;44.860;10.066;2022-12-07T09:17:25;28.98;;;17.20;;
28531;SDS011;15738;44.860;10.066;2022-12-07T09:20:12;32.80;;;17.73;;
28531;SDS011;15738;44.860;10.066;2022-12-07T09:22:57;34.22;;;18.73;;
28531;SDS011;15738;44.860;10.066;2022-12-07T09:25:43;32.00;;;17.80;;
28531;SDS011;15738;44.860;10.066;2022-12-07T09:28:29;34.78;;;17.48;;
28531;SDS011;15738;44.860;10.066;2022-12-07T09:31:16;33.45;;;18.55;;
28531;SDS011;15738;44.860;10.066;2022-12-07T09:34:10;32.35;;;18.23;;
28531;SDS011;15738;44.860;10.066;2022-12-07T09:36:56;33.10;;;18.08;;
28531;SDS011;15738;44.860;10.066;2022-12-07T09:39:42;33.03;;;19.05;;
28531;SDS011;15738;44.860;10.066;2022-12-07T09:42:38;30.80;;;18.23;;
28531;SDS011;15738;44.860;10.066;2022-12-07T09:45:34;36.25;;;19.33;;
28531;SDS011;15738;44.860;10.066;2022-12-07T09:48:22;34.53;;;19.77;;
28531;SDS011;15738;44.860;10.066;2022-12-07T09:51:24;38.10;;;20.50;;
28531;SDS011;15738;44.860;10.066;2022-12-07T09:54:14;36.20;;;20.13;;
28531;SDS011;15738;44.860;10.066;2022-12-07T09:57:01;35.45;;;19.83;;
28531;SDS011;15738;44.860;10.066;2022-12-07T09:59:47;38.05;;;20.35;;
28531;SDS011;15738;44.860;10.066;2022-12-07T10:02:37;34.10;;;19.15;;
28531;SDS011;15738;44.860;10.066;2022-12-07T10:05:27;38.13;;;21.02;;
28531;SDS011;15738;44.860;10.066;2022-12-07T10:08:21;38.10;;;20.30;;
28531;SDS011;15738;44.860;10.066;2022-12-07T10:11:07;44.50;;;22.92;;
28531;SDS011;15738;44.860;10.066;2022-12-07T10:13:55;46.40;;;22.88;;
28531;SDS011;15738;44.860;10.066;2022-12-07T10:16:57;48.97;;;23.30;;
28531;SDS011;15738;44.860;10.066;2022-12-07T10:19:43;42.92;;;22.73;;
28531;SDS011;15738;44.860;10.066;2022-12-07T10:22:28;48.35;;;24.38;;
28531;SDS011;15738;44.860;10.066;2022-12-07T10:25:18;46.45;;;24.33;;
28531;SDS011;15738;44.860;10.066;2022-12-07T10:28:16;53.13;;;27.05;;
28531;SDS011;15738;44.860;10.066;2022-12-07T10:31:15;50.35;;;26.05;;
28531;SDS011;15738;44.860;10.066;2022-12-07T10:34:14;50.67;;;26.40;;
28531;SDS011;15738;44.860;10.066;2022-12-07T10:40:00;58.25;;;27.23;;
28531;SDS011;15738;44.860;10.066;2022-12-07T10:42:45;57.92;;;28.40;;
28531;SDS011;15738;44.860;10.066;2022-12-07T10:52:32;57.83;;;28.70;;
28531;SDS011;15738;44.860;10.066;2022-12-07T11:01:30;61.08;;;29.27;;
28531;SDS011;15738;44.860;10.066;2022-12-07T11:07:27;60.65;;;26.75;;
28531;SDS011;15738;44.860;10.066;2022-12-07T11:11:26;57.50;;;29.38;;
28531;SDS011;15738;44.860;10.066;2022-12-07T11:29:51;55.75;;;29.75;;
28531;SDS011;15738;44.860;10.066;2022-12-07T11:33:29;52.63;;;28.23;;
28531;SDS011;15738;44.860;10.066;2022-12-07T11:39:28;55.58;;;27.15;;
28531;SDS011;15738;44.860;10.066;2022-12-07T11:42:20;56.15;;;28.52;;
28531;SDS011;15738;44.860;10.066;2022-12-07T11:48:06;43.80;;;24.50;;
28531;SDS011;15738;44.860;10.066;2022-12-07T11:51:14;55.60;;;27.73;;
28531;SDS011;15738;44.860;10.066;2022-12-07T11:54:05;57.45;;;27.83;;
28531;SDS011;15738;44.860;10.066;2022-12-07T11:57:05;55.30;;;27.85;;
28531;SDS011;15738;44.860;10.066;2022-12-07T12:00:16;59.70;;;27.60;;
28531;SDS011;15738;44.860;10.066;2022-12-07T12:03:09;54.88;;;28.92;;
28531;SDS011;15738;44.860;10.066;2022-12-07T12:06:02;53.10;;;28.10;;
28531;SDS011;15738;44.860;10.066;2022-12-07T12:08:50;58.05;;;28.77;;
28531;SDS011;15738;44.860;10.066;2022-12-07T12:15:34;54.97;;;28.83;;
28531;SDS011;15738;44.860;10.066;2022-12-07T12:19:03;59.88;;;29.60;;
28531;SDS011;15738;44.860;10.066;2022-12-07T12:22:18;66.32;;;29.95;;
28531;SDS011;15738;44.860;10.066;2022-12-07T12:25:17;56.42;;;30.15;;
28531;SDS011;15738;44.860;10.066;2022-12-07T12:32:04;71.75;;;32.42;;
28531;SDS011;15738;44.860;10.066;2022-12-07T12:34:32;67.80;;;34.05;;
28531;SDS011;15738;44.860;10.066;2022-12-07T12:43:14;60.22;;;30.83;;
28531;SDS011;15738;44.860;10.066;2022-12-07T12:46:36;63.33;;;30.45;;
28531;SDS011;15738;44.860;10.066;2022-12-07T12:55:29;75.30;;;34.63;;
28531;SDS011;15738;44.860;10.066;2022-12-07T12:58:43;72.00;;;34.95;;
28531;SDS011;15738;44.860;10.066;2022-12-07T13:01:38;77.95;;;34.80;;
28531;SDS011;15738;44.860;10.066;2022-12-07T13:10:38;87.57;;;35.85;;
28531;SDS011;15738;44.860;10.066;2022-12-07T13:13:31;75.60;;;36.78;;
28531;SDS011;15738;44.860;10.066;2022-12-07T13:28:23;80.82;;;36.72;;
28531;SDS011;15738;44.860;10.066;2022-12-07T13:31:22;84.70;;;38.03;;
28531;SDS011;15738;44.860;10.066;2022-12-07T13:37:28;82.97;;;37.90;;
28531;SDS011;15738;44.860;10.066;2022-12-07T13:40:23;85.75;;;38.50;;
28531;SDS011;15738;44.860;10.066;2022-12-07T13:43:13;78.80;;;37.85;;
28531;SDS011;15738;44.860;10.066;2022-12-07T13:46:00;81.72;;;35.88;;
28531;SDS011;15738;44.860;10.066;2022-12-07T13:48:47;82.38;;;38.20;;
28531;SDS011;15738;44.860;10.066;2022-12-07T13:51:34;84.38;;;37.10;;
28531;SDS011;15738;44.860;10.066;2022-12-07T13:54:22;74.00;;;34.50;;
28531;SDS011;15738;44.860;10.066;2022-12-07T13:57:08;79.25;;;37.75;;
28531;SDS011;15738;44.860;10.066;2022-12-07T13:59:54;94.80;;;37.40;;
28531;SDS011;15738;44.860;10.066;2022-12-07T14:02:57;89.57;;;38.45;;
28531;SDS011;15738;44.860;10.066;2022-12-07T14:05:46;94.70;;;40.20;;
28531;SDS011;15738;44.860;10.066;2022-12-07T14:08:48;93.72;;;39.08;;
28531;SDS011;15738;44.860;10.066;2022-12-07T14:11:41;87.40;;;39.13;;
28531;SDS011;15738;44.860;10.066;2022-12-07T14:14:28;91.45;;;39.75;;
28531;SDS011;15738;44.860;10.066;2022-12-07T14:17:22;91.05;;;39.28;;
28531;SDS011;15738;44.860;10.066;2022-12-07T14:23:34;94.57;;;41.33;;
28531;SDS011;15738;44.860;10.066;2022-12-07T14:26:20;100.28;;;40.28;;
28531;SDS011;15738;44.860;10.066;2022-12-07T14:35:17;81.30;;;37.10;;
28531;SDS011;15738;44.860;10.066;2022-12-07T14:38:03;83.93;;;36.35;;
28531;SDS011;15738;44.860;10.066;2022-12-07T14:40:51;93.35;;;38.17;;
28531;SDS011;15738;44.860;10.066;2022-12-07T14:43:38;90.22;;;37.40;;
28531;SDS011;15738;44.860;10.066;2022-12-07T14:46:44;89.22;;;38.10;;
28531;SDS011;15738;44.860;10.066;2022-12-07T14:49:31;100.97;;;39.70;;
28531;SDS011;15738;44.860;10.066;2022-12-07T14:52:29;96.80;;;39.95;;
28531;SDS011;15738;44.860;10.066;2022-12-07T14:55:38;96.40;;;39.22;;
28531;SDS011;15738;44.860;10.066;2022-12-07T14:58:23;90.70;;;38.33;;
28531;SDS011;15738;44.860;10.066;2022-12-07T15:01:09;85.93;;;37.10;;
28531;SDS011;15738;44.860;10.066;2022-12-07T15:03:55;84.80;;;37.92;;
28531;SDS011;15738;44.860;10.066;2022-12-07T15:06:40;79.75;;;35.35;;
28531;SDS011;15738;44.860;10.066;2022-12-07T15:09:29;85.05;;;35.85;;
28531;SDS011;15738;44.860;10.066;2022-12-07T15:12:14;80.25;;;36.28;;
28531;SDS011;15738;44.860;10.066;2022-12-07T15:15:00;82.85;;;36.83;;
28531;SDS011;15738;44.860;10.066;2022-12-07T15:17:48;92.57;;;37.80;;
28531;SDS011;15738;44.860;10.066;2022-12-07T15:20:49;89.05;;;37.97;;
28531;SDS011;15738;44.860;10.066;2022-12-07T15:23:35;89.45;;;39.45;;
28531;SDS011;15738;44.860;10.066;2022-12-07T15:26:20;95.45;;;39.10;;
28531;SDS011;15738;44.860;10.066;2022-12-07T15:29:07;86.32;;;38.30;;
28531;SDS011;15738;44.860;10.066;2022-12-07T15:31:55;91.93;;;39.72;;
28531;SDS011;15738;44.860;10.066;2022-12-07T15:34:42;97.22;;;39.55;;
28531;SDS011;15738;44.860;10.066;2022-12-07T15:37:28;95.43;;;41.30;;
28531;SDS011;15738;44.860;10.066;2022-12-07T15:40:14;91.53;;;38.17;;
28531;SDS011;15738;44.860;10.066;2022-12-07T15:43:02;94.75;;;38.83;;
28531;SDS011;15738;44.860;10.066;2022-12-07T15:45:49;95.97;;;40.25;;
28531;SDS011;15738;44.860;10.066;2022-12-07T15:48:35;80.60;;;36.28;;
28531;SDS011;15738;44.860;10.066;2022-12-07T15:51:20;90.07;;;39.55;;
28531;SDS011;15738;44.860;10.066;2022-12-07T15:57:31;95.75;;;38.53;;
28531;SDS011;15738;44.860;10.066;2022-12-07T16:00:18;95.43;;;39.22;;
28531;SDS011;15738;44.860;10.066;2022-12-07T16:03:04;99.72;;;39.13;;
28531;SDS011;15738;44.860;10.066;2022-12-07T16:05:51;89.78;;;37.90;;
28531;SDS011;15738;44.860;10.066;2022-12-07T16:08:42;94.70;;;38.05;;
28531;SDS011;15738;44.860;10.066;2022-12-07T16:11:29;93.78;;;37.97;;
28531;SDS011;15738;44.860;10.066;2022-12-07T16:14:15;94.85;;;39.35;;
28531;SDS011;15738;44.860;10.066;2022-12-07T16:17:01;99.03;;;39.22;;
28531;SDS011;15738;44.860;10.066;2022-12-07T16:19:47;91.90;;;37.72;;
28531;SDS011;15738;44.860;10.066;2022-12-07T16:22:33;98.50;;;38.53;;
28531;SDS011;15738;44.860;10.066;2022-12-07T16:25:20;91.50;;;39.17;;
28531;SDS011;15738;44.860;10.066;2022-12-07T16:28:07;87.90;;;38.35;;
28531;SDS011;15738;44.860;10.066;2022-12-07T16:30:59;87.95;;;38.17;;
28531;SDS011;15738;44.860;10.066;2022-12-07T16:33:47;86.70;;;37.03;;
28531;SDS011;15738;44.860;10.066;2022-12-07T16:36:34;89.03;;;36.35;;
28531;SDS011;15738;44.860;10.066;2022-12-07T16:39:40;83.95;;;34.85;;
28531;SDS011;15738;44.860;10.066;2022-12-07T16:42:25;91.95;;;37.00;;
28531;SDS011;15738;44.860;10.066;2022-12-07T16:45:11;90.63;;;36.78;;
28531;SDS011;15738;44.860;10.066;2022-12-07T16:48:04;92.70;;;38.13;;
28531;SDS011;15738;44.860;10.066;2022-12-07T16:50:50;94.40;;;38.22;;
28531;SDS011;15738;44.860;10.066;2022-12-07T16:53:39;91.93;;;38.40;;
28531;SDS011;15738;44.860;10.066;2022-12-07T16:56:27;106.95;;;39.92;;
28531;SDS011;15738;44.860;10.066;2022-12-07T16:59:14;92.03;;;38.78;;
28531;SDS011;15738;44.860;10.066;2022-12-07T17:02:01;94.25;;;37.58;;
28531;SDS011;15738;44.860;10.066;2022-12-07T17:04:47;92.13;;;36.17;;
28531;SDS011;15738;44.860;10.066;2022-12-07T17:07:32;95.50;;;38.88;;
28531;SDS011;15738;44.860;10.066;2022-12-07T17:10:18;99.68;;;40.63;;
28531;SDS011;15738;44.860;10.066;2022-12-07T17:13:04;105.78;;;39.83;;
28531;SDS011;15738;44.860;10.066;2022-12-07T17:16:11;93.32;;;38.33;;
28531;SDS011;15738;44.860;10.066;2022-12-07T17:18:56;94.10;;;37.35;;
28531;SDS011;15738;44.860;10.066;2022-12-07T17:21:42;92.18;;;38.10;;
28531;SDS011;15738;44.860;10.066;2022-12-07T17:24:29;92.88;;;37.10;;
28531;SDS011;15738;44.860;10.066;2022-12-07T17:27:14;85.88;;;36.95;;
28531;SDS011;15738;44.860;10.066;2022-12-07T17:30:05;93.32;;;38.58;;
28531;SDS011;15738;44.860;10.066;2022-12-07T17:32:52;90.88;;;37.60;;
28531;SDS011;15738;44.860;10.066;2022-12-07T17:35:37;84.72;;;35.88;;
28531;SDS011;15738;44.860;10.066;2022-12-07T17:38:23;99.43;;;38.28;;
28531;SDS011;15738;44.860;10.066;2022-12-07T17:41:12;80.30;;;35.08;;
28531;SDS011;15738;44.860;10.066;2022-12-07T17:44:23;90.63;;;36.25;;
28531;SDS011;15738;44.860;10.066;2022-12-07T17:47:11;90.47;;;36.92;;
28531;SDS011;15738;44.860;10.066;2022-12-07T17:49:57;85.80;;;35.30;;
28531;SDS011;15738;44.860;10.066;2022-12-07T17:52:51;86.50;;;37.13;;
28531;SDS011;15738;44.860;10.066;2022-12-07T17:55:55;87.90;;;38.05;;
28531;SDS011;15738;44.860;10.066;2022-12-07T17:59:02;95.18;;;37.95;;
28531;SDS011;15738;44.860;10.066;2022-12-07T18:01:48;96.93;;;38.15;;
28531;SDS011;15738;44.860;10.066;2022-12-07T18:04:33;92.32;;;39.40;;
28531;SDS011;15738;44.860;10.066;2022-12-07T18:07:19;99.65;;;38.63;;
28531;SDS011;15738;44.860;10.066;2022-12-07T18:10:05;109.13;;;41.80;;
28531;SDS011;15738;44.860;10.066;2022-12-07T18:12:53;102.88;;;41.58;;
28531;SDS011;15738;44.860;10.066;2022-12-07T18:15:59;109.70;;;42.50;;
28531;SDS011;15738;44.860;10.066;2022-12-07T18:18:44;102.00;;;40.13;;